Archival Weather

Dane County Rgnl/Truax Fld

Madison, Wisconsin (KMSN)

Report from: Sunday, April 21, 2024 11:53 AM CDT
Current time: Tuesday, May 21, 2024 12:11 PM CDT

Current weather – Weather history – Daily summaries
Weather forecast

Temperature10.0°C (50.0°F)
Wind chill8.0°C (46.3°F)
Dew point-3.3°C (26.1°F)
Winds 8 kts (4.1 m/s, 9.2 mph) West (280°)
Wind gusts 16 kts (8.2 m/s, 18.4 mph)
Visibility10 mi. (16.1 km)
Clouds Few clouds 5,000 ft. (1,524 m)
Altimeter30.16 in.Hg (1021 mB)
Relative humidity39 %
Density altitude-820 ft. (-250 m)
Sea-level pressure102.2 kPa (1022 mB, 30.18 in.Hg)
Remarks System requires maintenance
Automated weather observing station with precipitation discriminator
Flight conditions Visual Meteorological Conditions
Raw dataKMSN 211653Z 28008G16KT 10SM FEW050 10/M03 A3016 RMK AO2 SLP221 T01001033 $
An error has occurred. This application may no longer respond until reloaded. Reload 🗙